createdAt,value
2022-10-17T00:00:35.611Z,99115.97
2022-10-17T00:03:02.006Z,99124.97
2022-10-17T00:05:28.450Z,99115.75
2022-10-17T00:07:55.641Z,99115.56
2022-10-17T00:10:22.666Z,99120.03
2022-10-17T00:12:51.181Z,99121.44
2022-10-17T00:15:19.744Z,99127.72
2022-10-17T00:17:46.146Z,99136.22
2022-10-17T00:20:13.084Z,99134.06
2022-10-17T00:22:39.712Z,99139.84
2022-10-17T00:25:06.453Z,99128.72
2022-10-17T00:27:40.903Z,99132.78
2022-10-17T00:30:11.899Z,99131.16
2022-10-17T00:32:38.444Z,99129.34
2022-10-17T00:35:05.063Z,99137.84
2022-10-17T00:37:32.063Z,99147.13
2022-10-17T00:39:58.877Z,99138.41
2022-10-17T00:42:26.858Z,99140.63
2022-10-17T00:45:22.029Z,99142.06
2022-10-17T00:47:53.635Z,99139.09
2022-10-17T00:50:20.712Z,99142.63
2022-10-17T00:52:48.813Z,99135.56
2022-10-17T00:55:23.398Z,99134.53
2022-10-17T00:57:50.707Z,99139.50
2022-10-17T01:00:18.779Z,99146.38
2022-10-17T01:02:46.014Z,99145.84
2022-10-17T01:05:13.737Z,99140.13
2022-10-17T01:07:42.153Z,99139.59
2022-10-17T01:10:09.632Z,99133.34
2022-10-17T01:12:52.941Z,99144.06
2022-10-17T01:15:49.238Z,99143.03
2022-10-17T01:18:43.330Z,99141.81
2022-10-17T01:21:33.006Z,99141.81
2022-10-17T01:24:33.993Z,99150.00
2022-10-17T01:27:24.639Z,99150.88
2022-10-17T01:29:59.976Z,99146.84
2022-10-17T01:32:46.449Z,99147.66
2022-10-17T01:35:37.377Z,99145.25
2022-10-17T01:38:19.005Z,99148.78
2022-10-17T01:40:51.239Z,99140.09
2022-10-17T01:43:39.621Z,99139.06
2022-10-17T01:46:21.785Z,99137.75
2022-10-17T01:48:48.179Z,99140.69
2022-10-17T01:51:23.880Z,99145.00
2022-10-17T01:53:56.787Z,99140.38
2022-10-17T01:56:27.262Z,99139.38
2022-10-17T01:58:58.506Z,99143.22
2022-10-17T02:01:27.689Z,99137.75
2022-10-17T02:03:56.119Z,99138.34
2022-10-17T02:06:22.479Z,99132.16
2022-10-17T02:08:50.761Z,99129.25
2022-10-17T02:11:22.358Z,99126.84
2022-10-17T02:14:18.277Z,99129.25
2022-10-17T02:17:03.366Z,99131.47
2022-10-17T02:19:38.464Z,99126.41
2022-10-17T02:22:13.960Z,99128.03
2022-10-17T02:24:51.690Z,99128.84
2022-10-17T02:27:33.776Z,99127.22
2022-10-17T02:30:13.244Z,99129.41
2022-10-17T02:33:02.028Z,99137.09
2022-10-17T02:35:32.763Z,99134.44
2022-10-17T02:38:00.468Z,99140.00
2022-10-17T02:40:30.595Z,99138.88
2022-10-17T02:42:59.233Z,99137.28
2022-10-17T02:45:28.041Z,99140.00
2022-10-17T02:48:00.695Z,99151.47
2022-10-17T02:50:48.279Z,99141.19
2022-10-17T02:53:21.184Z,99158.41
2022-10-17T02:55:58.947Z,99149.72
2022-10-17T02:58:30.637Z,99142.66
2022-10-17T03:00:58.198Z,99145.66
2022-10-17T03:03:30.234Z,99151.13
2022-10-17T03:05:56.783Z,99147.09
2022-10-17T03:08:23.872Z,99147.69
2022-10-17T03:10:51.383Z,99159.66
2022-10-17T03:13:18.818Z,99149.06
2022-10-17T03:15:45.407Z,99149.06
2022-10-17T03:18:11.889Z,99149.88
2022-10-17T03:20:38.276Z,99149.66
2022-10-17T03:23:04.827Z,99151.91
2022-10-17T03:25:31.265Z,99144.81
2022-10-17T03:28:00.405Z,99152.97
2022-10-17T03:30:27.520Z,99154.09
2022-10-17T03:32:53.864Z,99157.91
2022-10-17T03:35:20.239Z,99166.38
2022-10-17T03:37:46.629Z,99169.41
2022-10-17T03:40:13.060Z,99168.88
2022-10-17T03:42:39.545Z,99173.00
2022-10-17T03:45:06.299Z,99177.66
2022-10-17T03:47:32.985Z,99171.34
2022-10-17T03:49:59.537Z,99172.69
2022-10-17T03:52:26.203Z,99164.53
2022-10-17T03:54:52.648Z,99175.13
2022-10-17T03:57:19.301Z,99172.69
2022-10-17T03:59:45.854Z,99171.09
2022-10-17T04:02:12.329Z,99173.00
2022-10-17T04:04:38.852Z,99170.56
2022-10-17T04:07:05.318Z,99170.00
2022-10-17T04:09:31.950Z,99173.94
2022-10-17T04:11:58.654Z,99174.22
2022-10-17T04:14:25.308Z,99175.13
2022-10-17T04:16:51.819Z,99175.91
2022-10-17T04:19:20.418Z,99191.16
2022-10-17T04:21:47.186Z,99194.97
2022-10-17T04:24:20.450Z,99194.69
2022-10-17T04:26:50.971Z,99198.50
2022-10-17T04:29:22.003Z,99198.81
2022-10-17T04:31:52.256Z,99192.06
2022-10-17T04:34:21.416Z,99201.34
2022-10-17T04:36:48.007Z,99200.31
2022-10-17T04:41:41.646Z,99207.44
2022-10-17T04:44:08.033Z,99212.31
2022-10-17T04:46:34.939Z,99216.91
2022-10-17T04:49:04.412Z,99221.00
2022-10-17T04:51:30.844Z,99207.69
2022-10-17T04:53:57.230Z,99203.63
2022-10-17T04:56:24.607Z,99210.47
2022-10-17T04:58:51.100Z,99200.97
2022-10-17T05:01:20.062Z,99203.69
2022-10-17T05:03:47.476Z,99201.25
2022-10-17T05:06:21.156Z,99212.66
2022-10-17T05:08:48.295Z,99211.03
2022-10-17T05:11:21.147Z,99211.31
2022-10-17T05:13:56.432Z,99212.94
2022-10-17T05:16:24.184Z,99211.31
2022-10-17T05:18:56.470Z,99214.03
2022-10-17T05:21:25.323Z,99218.69
2022-10-17T05:23:52.250Z,99211.63
2022-10-17T05:26:19.841Z,99209.19
2022-10-17T05:28:46.540Z,99204.84
2022-10-17T05:31:13.396Z,99203.75
2022-10-17T05:33:40.838Z,99212.44
2022-10-17T05:36:07.783Z,99209.16
2022-10-17T05:38:34.498Z,99214.59
2022-10-17T05:41:02.374Z,99210.22
2022-10-17T05:43:29.656Z,99217.31
2022-10-17T05:45:56.248Z,99214.84
2022-10-17T05:48:23.528Z,99215.66
2022-10-17T05:50:50.066Z,99220.03
2022-10-17T05:53:17.304Z,99221.63
2022-10-17T05:55:43.672Z,99217.88
2022-10-17T05:58:17.610Z,99221.69
2022-10-17T06:00:48.751Z,99216.25
2022-10-17T06:03:15.172Z,99217.34
2022-10-17T06:05:41.691Z,99229.84
2022-10-17T06:08:08.055Z,99238.22
2022-10-17T06:10:34.411Z,99241.19
2022-10-17T06:13:00.832Z,99242.53
2022-10-17T06:15:27.232Z,99236.28
2022-10-17T06:17:53.568Z,99237.88
2022-10-17T06:20:20.039Z,99243.31
2022-10-17T06:22:46.446Z,99243.06
2022-10-17T06:25:12.920Z,99234.31
2022-10-17T06:27:39.378Z,99243.50
2022-10-17T06:30:06.377Z,99238.34
2022-10-17T06:32:32.932Z,99238.06
2022-10-17T06:34:59.409Z,99241.59
2022-10-17T06:37:26.202Z,99243.44
2022-10-17T06:39:52.890Z,99247.50
2022-10-17T06:42:19.303Z,99253.16
2022-10-17T06:44:45.849Z,99250.16
2022-10-17T06:47:16.534Z,99258.53
2022-10-17T06:49:45.914Z,99266.38
2022-10-17T06:52:12.555Z,99270.66
2022-10-17T06:54:39.167Z,99274.13
2022-10-17T06:57:05.914Z,99275.44
2022-10-17T06:59:32.650Z,99282.47
2022-10-17T07:02:01.087Z,99282.91
2022-10-17T07:04:28.010Z,99287.19
2022-10-17T07:06:54.804Z,99289.31
2022-10-17T07:09:22.838Z,99293.28
2022-10-17T07:11:49.440Z,99290.50
2022-10-17T07:14:15.955Z,99293.34
2022-10-17T07:16:42.486Z,99296.25
2022-10-17T07:19:08.936Z,99296.38
2022-10-17T07:21:38.255Z,99304.69
2022-10-17T07:24:07.140Z,99309.47
2022-10-17T07:26:33.855Z,99300.63
2022-10-17T07:29:00.319Z,99303.47
2022-10-17T07:31:26.782Z,99307.72
2022-10-17T07:33:53.398Z,99311.38
2022-10-17T07:36:19.860Z,99311.84
2022-10-17T07:39:01.055Z,99311.69
2022-10-17T07:42:02.259Z,99309.84
2022-10-17T07:44:33.988Z,99312.91
2022-10-17T07:50:33.324Z,99319.69
2022-10-17T07:53:21.244Z,99321.94
2022-10-17T08:03:31.081Z,99325.63
2022-10-17T08:28:24.996Z,99331.44
2022-10-17T08:31:19.391Z,99332.53
2022-10-17T08:39:45.348Z,99334.91
2022-10-17T08:46:27.639Z,99330.34
2022-10-17T08:52:26.643Z,99337.16
2022-10-17T08:55:49.429Z,99336.69
2022-10-17T09:02:03.065Z,99331.47
2022-10-17T09:04:35.378Z,99339.84
2022-10-17T09:07:22.346Z,99343.44
2022-10-17T09:10:18.651Z,99335.38
2022-10-17T09:13:22.792Z,99338.09
2022-10-17T09:16:02.854Z,99332.09
2022-10-17T09:18:33.443Z,99330.47
2022-10-17T09:21:21.518Z,99328.69
2022-10-17T09:24:03.797Z,99325.41
2022-10-17T09:26:38.437Z,99330.34
2022-10-17T09:29:22.453Z,99327.44
2022-10-17T09:32:17.657Z,99330.31
2022-10-17T09:34:44.153Z,99336.09
2022-10-17T09:37:16.031Z,99342.38
2022-10-17T09:39:43.893Z,99342.00
2022-10-17T09:42:15.405Z,99341.13
2022-10-17T09:45:11.595Z,99329.00
2022-10-17T09:47:45.730Z,99342.41
2022-10-17T09:50:19.656Z,99333.03
2022-10-17T09:52:48.563Z,99328.59
2022-10-17T09:55:20.404Z,99320.81
2022-10-17T09:58:02.113Z,99316.53
2022-10-17T10:00:43.750Z,99318.84
2022-10-17T10:03:13.106Z,99318.16
2022-10-17T10:05:40.574Z,99322.75
2022-10-17T10:08:14.958Z,99316.81
2022-10-17T10:10:43.208Z,99318.66
2022-10-17T10:13:15.763Z,99314.19
2022-10-17T10:15:47.284Z,99319.59
2022-10-17T10:18:26.217Z,99323.28
2022-10-17T10:21:06.965Z,99325.94
2022-10-17T10:23:34.588Z,99319.28
2022-10-17T10:26:18.908Z,99327.47
2022-10-17T10:28:57.029Z,99328.53
2022-10-17T10:31:35.596Z,99328.97
2022-10-17T10:34:14.545Z,99335.06
2022-10-17T10:36:48.342Z,99334.94
2022-10-17T10:39:36.271Z,99340.53
2022-10-17T10:42:05.826Z,99339.59
2022-10-17T10:44:33.835Z,99332.06
2022-10-17T10:47:19.171Z,99333.13
2022-10-17T10:49:45.995Z,99339.56
2022-10-17T10:52:22.446Z,99338.41
2022-10-17T10:55:02.862Z,99342.09
2022-10-17T10:57:33.273Z,99333.53
2022-10-17T11:00:13.324Z,99333.47
2022-10-17T11:07:13.106Z,99333.81
2022-10-17T11:14:15.187Z,99325.84
2022-10-17T11:25:56.813Z,99324.09
2022-10-17T11:28:58.782Z,99313.09
2022-10-17T11:45:31.393Z,99295.25
2022-10-17T11:52:02.607Z,99301.34
2022-10-17T11:55:19.220Z,99291.38
2022-10-17T11:58:41.388Z,99285.03
2022-10-17T12:01:38.057Z,99293.09
2022-10-17T12:09:23.992Z,99291.88
2022-10-17T12:23:10.263Z,99284.53
2022-10-17T12:25:47.849Z,99282.97
2022-10-17T12:28:43.556Z,99287.03
2022-10-17T12:31:23.197Z,99279.31
2022-10-17T12:33:55.525Z,99278.69
2022-10-17T12:36:21.903Z,99276.34
2022-10-17T12:38:50.247Z,99278.69
2022-10-17T12:41:37.823Z,99283.13
2022-10-17T12:44:13.626Z,99286.88
2022-10-17T12:46:49.742Z,99290.06
2022-10-17T12:49:43.503Z,99282.72
2022-10-17T12:52:25.329Z,99291.50
2022-10-17T12:55:13.506Z,99284.88
2022-10-17T12:58:01.546Z,99294.03
2022-10-17T13:01:11.778Z,99281.25
2022-10-17T13:03:45.058Z,99290.75
2022-10-17T13:06:19.477Z,99286.25
2022-10-17T13:08:53.630Z,99284.94
2022-10-17T13:11:25.122Z,99287.09
2022-10-17T13:13:55.705Z,99291.00
2022-10-17T13:16:32.615Z,99288.69
2022-10-17T13:19:00.836Z,99293.28
2022-10-17T13:21:29.538Z,99303.09
2022-10-17T13:24:15.794Z,99309.72
2022-10-17T13:35:14.898Z,99329.47
2022-10-17T13:53:19.264Z,99343.25
2022-10-17T13:56:35.276Z,99349.41
2022-10-17T14:11:31.031Z,99347.72
2022-10-17T14:15:05.245Z,99344.50
2022-10-17T14:19:08.495Z,99349.63
2022-10-17T14:24:26.811Z,99347.50
2022-10-17T14:26:56.232Z,99351.44
2022-10-17T14:29:35.985Z,99356.53
2022-10-17T14:32:10.519Z,99352.16
2022-10-17T14:34:40.534Z,99353.63
2022-10-17T14:37:13.067Z,99349.53
2022-10-17T14:39:39.887Z,99352.19
2022-10-17T14:42:06.432Z,99347.75
2022-10-17T14:44:35.418Z,99358.91
2022-10-17T14:47:30.861Z,99355.34
2022-10-17T14:50:07.452Z,99359.53
2022-10-17T15:01:22.905Z,99361.06
2022-10-17T15:04:23.895Z,99359.28
2022-10-17T15:08:06.913Z,99352.41
2022-10-17T15:10:46.044Z,99346.81
2022-10-17T15:13:54.236Z,99346.28
2022-10-17T15:23:59.271Z,99363.78
2022-10-17T15:27:09.829Z,99360.31
2022-10-17T15:52:34.229Z,99354.22
2022-10-17T15:55:04.164Z,99359.69
2022-10-17T15:57:35.899Z,99366.03
2022-10-17T16:00:02.484Z,99377.56
2022-10-17T16:02:28.925Z,99382.88
2022-10-17T16:04:55.445Z,99371.13
2022-10-17T16:07:22.707Z,99379.09
2022-10-17T16:09:49.265Z,99376.44
2022-10-17T16:12:19.219Z,99374.16
2022-10-17T16:14:45.719Z,99380.47
2022-10-17T16:17:16.907Z,99380.13
2022-10-17T16:19:43.353Z,99383.28
2022-10-17T16:22:32.513Z,99384.56
2022-10-17T16:25:07.427Z,99401.19
2022-10-17T16:28:06.883Z,99404.81
2022-10-17T16:43:53.230Z,99416.97
2022-10-17T16:47:20.952Z,99414.19
2022-10-17T16:50:26.386Z,99411.34
2022-10-17T16:53:11.973Z,99415.44
2022-10-17T17:00:20.130Z,99431.25
2022-10-17T17:07:50.574Z,99432.81
2022-10-17T17:10:30.546Z,99434.78
2022-10-17T17:13:35.817Z,99441.59
2022-10-17T17:33:48.501Z,99457.44
2022-10-17T17:36:51.824Z,99455.19
2022-10-17T17:39:22.186Z,99459.38
2022-10-17T17:42:06.051Z,99464.72
2022-10-17T17:44:34.525Z,99457.13
2022-10-17T17:47:00.974Z,99458.09
2022-10-17T17:49:27.353Z,99457.78
2022-10-17T17:51:53.930Z,99459.09
2022-10-17T17:54:20.353Z,99457.63
2022-10-17T17:56:46.798Z,99463.13
2022-10-17T17:59:13.541Z,99470.22
2022-10-17T18:01:41.643Z,99469.75
2022-10-17T18:04:09.122Z,99473.13
2022-10-17T18:06:37.546Z,99480.41
2022-10-17T18:09:05.390Z,99485.56
2022-10-17T18:11:33.520Z,99485.25
2022-10-17T18:14:05.918Z,99482.63
2022-10-17T18:16:33.885Z,99478.09
2022-10-17T18:19:06.648Z,99479.88
2022-10-17T18:21:34.188Z,99487.63
2022-10-17T18:24:00.838Z,99491.34
2022-10-17T18:26:27.690Z,99499.09
2022-10-17T18:28:54.303Z,99493.44
2022-10-17T18:31:28.860Z,99496.00
2022-10-17T18:33:57.187Z,99503.75
2022-10-17T18:36:25.956Z,99505.81
2022-10-17T18:38:53.266Z,99496.44
2022-10-17T18:41:23.554Z,99494.34
2022-10-17T18:43:51.270Z,99506.47
2022-10-17T18:46:28.911Z,99514.38
2022-10-17T18:48:55.491Z,99511.94
2022-10-17T18:51:24.074Z,99516.13
2022-10-17T18:53:53.540Z,99520.94
2022-10-17T18:56:21.679Z,99511.25
2022-10-17T18:58:48.053Z,99506.22
2022-10-17T19:01:21.327Z,99511.53
2022-10-17T19:03:49.956Z,99513.78
2022-10-17T19:06:20.768Z,99519.38
2022-10-17T19:08:48.067Z,99509.84
2022-10-17T19:11:24.765Z,99517.28
2022-10-17T19:13:51.957Z,99514.34
2022-10-17T19:16:25.773Z,99516.06
2022-10-17T19:18:58.626Z,99521.88
2022-10-17T19:21:25.397Z,99519.78
2022-10-17T19:23:54.290Z,99526.50
2022-10-17T19:26:21.922Z,99525.50
2022-10-17T19:28:48.697Z,99530.63
2022-10-17T19:31:17.985Z,99528.84
2022-10-17T19:33:44.897Z,99529.47
2022-10-17T19:36:12.717Z,99531.41
2022-10-17T19:38:39.738Z,99537.00
2022-10-17T19:41:11.503Z,99538.13
2022-10-17T19:43:39.765Z,99532.97
2022-10-17T19:46:08.871Z,99532.16
2022-10-17T19:48:36.788Z,99537.63
2022-10-17T19:51:08.426Z,99535.81
2022-10-17T19:53:35.068Z,99534.53
2022-10-17T19:56:03.239Z,99533.22
2022-10-17T19:58:29.877Z,99533.03
2022-10-17T20:01:00.896Z,99522.38
2022-10-17T20:03:28.830Z,99522.69
2022-10-17T20:05:55.859Z,99513.16
2022-10-17T20:08:22.490Z,99521.69
2022-10-17T20:10:48.964Z,99520.69
2022-10-17T20:13:15.378Z,99521.31
2022-10-17T20:15:41.771Z,99523.84
2022-10-17T20:18:08.939Z,99518.19
2022-10-17T20:20:35.630Z,99516.38
2022-10-17T20:23:03.009Z,99515.06
2022-10-17T20:25:29.523Z,99521.16
2022-10-17T20:27:55.956Z,99518.72
2022-10-17T20:30:22.478Z,99529.38
2022-10-17T20:32:48.832Z,99525.81
2022-10-17T20:35:15.253Z,99526.16
2022-10-17T20:37:42.770Z,99520.47
2022-10-17T20:40:34.078Z,99531.69
2022-10-17T20:42:56.178Z,99535.06
2022-10-17T20:45:37.308Z,99533.78
2022-10-17T20:54:58.854Z,99542.81
2022-10-17T20:57:38.526Z,99550.31
2022-10-17T21:00:16.531Z,99545.16
2022-10-17T21:05:30.165Z,99550.44
2022-10-17T21:08:08.112Z,99546.16
2022-10-17T21:10:44.652Z,99542.94
2022-10-17T21:18:57.515Z,99540.69
2022-10-17T21:21:42.109Z,99542.72
2022-10-17T21:24:19.980Z,99546.41
2022-10-17T21:27:02.214Z,99539.91
2022-10-17T21:29:35.517Z,99543.75
2022-10-17T21:33:14.546Z,99549.81
2022-10-17T21:49:29.802Z,99558.03
2022-10-17T21:51:56.245Z,99558.34
2022-10-17T21:54:23.484Z,99556.72
2022-10-17T21:56:50.571Z,99552.06
2022-10-17T21:59:16.954Z,99555.41
2022-10-17T22:01:45.219Z,99558.47
2022-10-17T22:04:16.711Z,99550.84
2022-10-17T22:06:45.100Z,99554.69
2022-10-17T22:09:24.428Z,99541.03
2022-10-17T22:11:53.160Z,99531.78
2022-10-17T22:14:21.196Z,99539.50
2022-10-17T22:16:48.935Z,99539.31
2022-10-17T22:19:26.205Z,99536.03
2022-10-17T22:21:53.468Z,99544.56
2022-10-17T22:26:48.442Z,99541.09
2022-10-17T22:29:15.376Z,99539.28
2022-10-17T22:31:41.788Z,99532.19
2022-10-17T22:34:08.326Z,99529.97
2022-10-17T22:36:35.378Z,99534.63
2022-10-17T22:39:02.141Z,99523.97
2022-10-17T22:41:28.742Z,99522.88
2022-10-17T22:43:55.161Z,99525.38
2022-10-17T22:46:21.545Z,99527.59
2022-10-17T22:48:47.973Z,99524.47
2022-10-17T22:51:14.475Z,99516.03
2022-10-17T22:53:41.062Z,99518.84
2022-10-17T22:56:13.235Z,99520.59
2022-10-17T22:58:39.874Z,99522.19
2022-10-17T23:01:07.813Z,99512.88
2022-10-17T23:03:34.923Z,99516.72
2022-10-17T23:06:02.454Z,99515.63
2022-10-17T23:08:28.852Z,99505.81
2022-10-17T23:10:55.316Z,99507.41
2022-10-17T23:13:22.223Z,99506.31
2022-10-17T23:15:52.727Z,99504.19
2022-10-17T23:18:19.844Z,99500.13
2022-10-17T23:20:46.407Z,99504.50
2022-10-17T23:23:12.972Z,99501.22
2022-10-17T23:25:40.270Z,99502.34
2022-10-17T23:28:08.958Z,99502.16
2022-10-17T23:30:36.635Z,99498.88
2022-10-17T23:33:03.739Z,99493.72
2022-10-17T23:35:30.129Z,99490.50
2022-10-17T23:37:56.531Z,99493.81
2022-10-17T23:40:22.916Z,99488.16
2022-10-17T23:42:49.315Z,99488.72
2022-10-17T23:45:15.846Z,99486.31
2022-10-17T23:47:42.370Z,99490.16
2022-10-17T23:50:08.997Z,99479.00
2022-10-17T23:52:35.379Z,99489.13
2022-10-17T23:55:01.735Z,99473.34
2022-10-17T23:57:28.819Z,99481.22
2022-10-17T23:59:55.445Z,99482.34
